createdAt,value
2017-10-31T00:00:51.320Z,81.59
2017-10-31T00:02:01.391Z,81.4
2017-10-31T00:03:11.793Z,81.49
2017-10-31T00:04:22.235Z,81.3
2017-10-31T00:05:32.657Z,81.59
2017-10-31T00:06:43.063Z,81.4
2017-10-31T00:07:53.127Z,81.4
2017-10-31T00:09:04.860Z,81.4
2017-10-31T00:10:14.928Z,81.68
2017-10-31T00:11:25.351Z,82.07
2017-10-31T00:12:35.683Z,81.4
2017-10-31T00:13:46.094Z,81.78
2017-10-31T00:14:56.491Z,81.49
2017-10-31T00:16:06.226Z,81.4
2017-10-31T00:17:16.295Z,81.78
2017-10-31T00:18:26.369Z,81.4
2017-10-31T00:19:36.426Z,81.49
2017-10-31T00:20:46.826Z,81.49
2017-10-31T00:21:57.223Z,81.4
2017-10-31T00:23:06.969Z,81.78
2017-10-31T00:24:17.348Z,81.4
2017-10-31T00:25:27.404Z,81.87
2017-10-31T00:26:37.483Z,81.78
2017-10-31T00:27:47.880Z,81.68
2017-10-31T00:28:58.274Z,81.59
2017-10-31T00:30:08.674Z,81.4
2017-10-31T00:31:18.733Z,81.49
2017-10-31T00:32:29.127Z,81.78
2017-10-31T00:33:38.884Z,81.59
2017-10-31T00:34:49.303Z,81.97
2017-10-31T00:35:59.715Z,81.68
2017-10-31T00:37:10.101Z,81.68
2017-10-31T00:38:20.487Z,81.68
2017-10-31T00:39:30.884Z,81.59
2017-10-31T00:40:41.274Z,81.78
2017-10-31T00:41:51.025Z,81.97
2017-10-31T00:43:00.752Z,81.68
2017-10-31T00:44:11.140Z,81.68
2017-10-31T00:45:21.543Z,82.07
2017-10-31T00:46:31.606Z,81.87
2017-10-31T00:47:41.341Z,81.97
2017-10-31T00:48:51.739Z,81.97
2017-10-31T00:50:02.142Z,81.87
2017-10-31T00:51:12.586Z,81.78
2017-10-31T00:52:22.667Z,81.87
2017-10-31T00:53:33.075Z,82.07
2017-10-31T00:54:43.493Z,81.68
2017-10-31T00:55:53.891Z,81.68
2017-10-31T00:57:03.641Z,81.68
2017-10-31T00:58:14.056Z,81.68
2017-10-31T00:59:24.154Z,81.87
2017-10-31T01:00:34.220Z,80.93
2017-10-31T01:01:44.612Z,81.49
2017-10-31T01:02:55.003Z,81.02
2017-10-31T01:04:05.063Z,80.83
2017-10-31T01:05:15.122Z,80.83
2017-10-31T01:06:25.174Z,80.83
2017-10-31T01:07:35.561Z,81.59
2017-10-31T01:08:45.964Z,81.78
2017-10-31T01:09:56.032Z,81.12
2017-10-31T01:11:06.455Z,81.3
2017-10-31T01:12:16.848Z,81.02
2017-10-31T01:13:27.246Z,81.12
2017-10-31T01:14:37.647Z,81.02
2017-10-31T01:15:48.060Z,80.93
2017-10-31T01:16:57.460Z,81.06
2017-10-31T01:18:07.852Z,80.87
2017-10-31T01:19:18.233Z,80.87
2017-10-31T01:20:28.676Z,80.77
2017-10-31T01:21:39.061Z,80.96
2017-10-31T01:22:49.493Z,81.06
2017-10-31T01:23:59.906Z,80.87
2017-10-31T01:25:10.277Z,80.96
2017-10-31T01:26:20.670Z,80.77
2017-10-31T01:27:31.069Z,80.87
2017-10-31T01:28:41.467Z,80.87
2017-10-31T01:29:51.529Z,81.06
2017-10-31T01:31:01.930Z,81.25
2017-10-31T01:32:12.378Z,81.16
2017-10-31T01:33:22.779Z,81.06
2017-10-31T01:34:33.177Z,80.77
2017-10-31T01:35:43.579Z,81.06
2017-10-31T01:36:53.675Z,81.25
2017-10-31T01:38:04.147Z,80.96
2017-10-31T01:39:14.564Z,81.1
2017-10-31T01:40:24.627Z,81.38
2017-10-31T01:41:34.352Z,81.25
2017-10-31T01:42:44.780Z,81.29
2017-10-31T01:43:55.225Z,81.58
2017-10-31T01:45:05.297Z,81.77
2017-10-31T01:46:15.696Z,81.2
2017-10-31T01:47:26.112Z,81.58
2017-10-31T01:48:36.190Z,81.58
2017-10-31T01:49:46.299Z,81.01
2017-10-31T01:50:56.700Z,81.77
2017-10-31T01:52:07.106Z,81.38
2017-10-31T01:53:17.506Z,81.29
2017-10-31T01:54:27.906Z,81.48
2017-10-31T01:55:38.354Z,81.58
2017-10-31T01:56:48.735Z,81.29
2017-10-31T01:57:59.146Z,81.2
2017-10-31T01:59:09.215Z,81.38
2017-10-31T02:00:19.306Z,81.01
2017-10-31T02:01:29.368Z,81.1
2017-10-31T02:02:39.779Z,81.2
2017-10-31T02:03:49.848Z,80.91
2017-10-31T02:04:59.923Z,80.91
2017-10-31T02:06:10.335Z,81.2
2017-10-31T02:07:20.409Z,80.91
2017-10-31T02:08:30.802Z,81.43
2017-10-31T02:09:41.201Z,81.01
2017-10-31T02:10:51.265Z,81.24
2017-10-31T02:12:01.663Z,81.1
2017-10-31T02:13:12.059Z,81.71
2017-10-31T02:14:22.457Z,82.09
2017-10-31T02:15:32.852Z,81.81
2017-10-31T02:16:43.259Z,81.77
2017-10-31T02:17:53.647Z,82
2017-10-31T02:19:04.179Z,82.05
2017-10-31T02:20:14.580Z,82.05
2017-10-31T02:21:24.650Z,81.48
2017-10-31T02:22:35.046Z,81.96
2017-10-31T02:23:45.455Z,81.58
2017-10-31T02:24:55.848Z,81.67
2017-10-31T02:26:06.234Z,81.67
2017-10-31T02:27:16.628Z,81.77
2017-10-31T02:28:27.019Z,81.58
2017-10-31T02:29:37.082Z,81.77
2017-10-31T02:30:47.480Z,81.86
2017-10-31T02:31:57.885Z,81.48
2017-10-31T02:33:08.314Z,82.05
2017-10-31T02:34:18.406Z,81.58
2017-10-31T02:35:28.832Z,81.77
2017-10-31T02:36:39.288Z,81.48
2017-10-31T02:37:49.668Z,81.77
2017-10-31T02:39:00.077Z,81.86
2017-10-31T02:40:10.474Z,81.77
2017-10-31T02:41:20.896Z,81.86
2017-10-31T02:42:31.333Z,81.48
2017-10-31T02:43:41.727Z,81.77
2017-10-31T02:44:52.132Z,81.86
2017-10-31T02:46:01.872Z,81.86
2017-10-31T02:47:11.946Z,81.67
2017-10-31T02:48:22.022Z,81.38
2017-10-31T02:49:32.424Z,82.15
2017-10-31T02:50:42.500Z,81.77
2017-10-31T02:51:52.897Z,81.77
2017-10-31T02:53:02.966Z,81.58
2017-10-31T02:54:14.010Z,81.58
2017-10-31T02:55:24.069Z,81.58
2017-10-31T02:56:34.461Z,81.58
2017-10-31T02:57:44.869Z,81.77
2017-10-31T02:58:55.314Z,81.48
2017-10-31T03:00:05.405Z,81.48
2017-10-31T03:01:15.833Z,81.38
2017-10-31T03:32:57.381Z,78.19
2017-10-31T03:34:08.006Z,78.47
2017-10-31T03:35:18.478Z,78.75
2017-10-31T03:36:29.106Z,79.9
2017-10-31T03:37:39.766Z,80.75
2017-10-31T03:38:50.389Z,81.41
2017-10-31T03:40:02.546Z,81.6
2017-10-31T03:41:15.597Z,82.17
2017-10-31T03:42:28.603Z,81.93
2017-10-31T03:43:46.544Z,81.74
2017-10-31T03:44:57.625Z,81.84
2017-10-31T03:46:08.035Z,82.21
2017-10-31T03:47:18.421Z,81.97
2017-10-31T03:48:28.486Z,81.68
2017-10-31T03:49:38.560Z,81.97
2017-10-31T03:50:48.952Z,81.97
2017-10-31T03:51:59.043Z,81.97
2017-10-31T03:53:09.443Z,82.29
2017-10-31T03:54:19.521Z,82.29
2017-10-31T03:55:29.963Z,82.01
2017-10-31T03:56:39.718Z,82.2
2017-10-31T03:57:50.104Z,82.1
2017-10-31T03:58:59.846Z,81.63
2017-10-31T04:00:09.931Z,82.15
2017-10-31T04:01:20.386Z,82.01
2017-10-31T04:02:30.459Z,81.96
2017-10-31T04:03:40.856Z,82.15
2017-10-31T04:04:51.263Z,82.15
2017-10-31T04:06:01.353Z,82.05
2017-10-31T04:07:11.814Z,82.05
2017-10-31T04:08:22.211Z,82.05
2017-10-31T04:09:32.289Z,82.05
2017-10-31T04:10:42.726Z,81.96
2017-10-31T04:11:53.135Z,81.86
2017-10-31T04:13:03.535Z,82.05
2017-10-31T04:14:13.939Z,82.05
2017-10-31T04:15:24.346Z,81.86
2017-10-31T04:16:34.415Z,81.96
2017-10-31T04:17:44.496Z,81.86
2017-10-31T04:18:54.942Z,81.77
2017-10-31T04:20:05.339Z,82.09
2017-10-31T04:21:15.731Z,81.96
2017-10-31T04:22:26.927Z,81.67
2017-10-31T04:23:37.320Z,81.81
2017-10-31T04:24:47.108Z,81.81
2017-10-31T04:25:57.218Z,81.52
2017-10-31T04:27:07.305Z,81.43
2017-10-31T04:28:17.712Z,81.9
2017-10-31T04:29:28.114Z,81.71
2017-10-31T04:30:38.521Z,81.52
2017-10-31T04:31:48.612Z,81.52
2017-10-31T04:32:58.998Z,81.71
2017-10-31T04:34:09.398Z,81.71
2017-10-31T04:35:19.797Z,81.71
2017-10-31T04:36:29.571Z,81.62
2017-10-31T04:37:39.627Z,81.62
2017-10-31T04:38:49.745Z,81.81
2017-10-31T04:40:00.135Z,81.71
2017-10-31T04:41:10.528Z,81.52
2017-10-31T04:42:20.975Z,81.71
2017-10-31T04:43:31.353Z,81.81
2017-10-31T04:44:41.746Z,81.71
2017-10-31T04:45:52.134Z,81.52
2017-10-31T04:47:02.775Z,81.71
2017-10-31T04:48:12.837Z,81.9
2017-10-31T04:49:22.895Z,81.81
2017-10-31T04:50:32.981Z,81.71
2017-10-31T04:51:43.374Z,81.71
2017-10-31T04:52:53.758Z,81.81
2017-10-31T04:54:04.161Z,81.71
2017-10-31T04:55:14.565Z,81.71
2017-10-31T04:56:24.637Z,81.62
2017-10-31T04:57:34.703Z,81.71
2017-10-31T04:58:45.113Z,81.81
2017-10-31T04:59:55.515Z,82
2017-10-31T05:01:05.580Z,81.52
2017-10-31T05:02:15.981Z,81.81
2017-10-31T05:03:26.383Z,81.81
2017-10-31T05:04:36.460Z,81.9
2017-10-31T05:05:46.601Z,81.9
2017-10-31T05:06:56.657Z,81.9
2017-10-31T05:08:07.057Z,81.81
2017-10-31T05:09:17.143Z,81.62
2017-10-31T05:10:27.555Z,81.62
2017-10-31T05:11:38.009Z,81.81
2017-10-31T05:12:48.409Z,81.71
2017-10-31T05:13:58.805Z,81.81
2017-10-31T05:15:09.193Z,81.81
2017-10-31T05:16:18.612Z,81.81
2017-10-31T05:17:28.737Z,81.71
2017-10-31T05:18:38.798Z,81.9
2017-10-31T05:19:48.864Z,81.71
2017-10-31T05:20:59.251Z,81.81
2017-10-31T05:22:09.645Z,81.81
2017-10-31T05:23:20.186Z,81.71
2017-10-31T05:24:30.266Z,81.33
2017-10-31T05:25:40.667Z,81.52
2017-10-31T05:26:51.091Z,81.62
2017-10-31T05:28:01.532Z,81.81
2017-10-31T05:29:11.591Z,81.71
2017-10-31T05:30:21.990Z,81.85
2017-10-31T05:31:32.390Z,81.85
2017-10-31T05:32:42.793Z,81.62
2017-10-31T05:33:53.239Z,81.47
2017-10-31T05:35:03.728Z,81.52
2017-10-31T05:36:13.797Z,81.52
2017-10-31T05:37:24.203Z,81.66
2017-10-31T05:38:34.593Z,81.56
2017-10-31T05:39:44.670Z,81.56
2017-10-31T05:40:54.787Z,81.66
2017-10-31T05:42:04.898Z,81.56
2017-10-31T05:43:15.297Z,81.66
2017-10-31T05:44:25.703Z,81.56
2017-10-31T05:45:35.451Z,81.56
2017-10-31T05:46:45.871Z,81.76
2017-10-31T05:47:55.927Z,81.56
2017-10-31T05:49:06.321Z,81.56
2017-10-31T05:50:16.735Z,81.56
2017-10-31T05:51:26.794Z,81.47
2017-10-31T05:52:37.240Z,81.47
2017-10-31T05:53:47.632Z,81.47
2017-10-31T05:54:57.383Z,81.95
2017-10-31T05:56:07.445Z,81.56
2017-10-31T05:57:17.513Z,81.76
2017-10-31T05:58:27.633Z,81.66
2017-10-31T05:59:38.031Z,81.47
2017-10-31T06:00:48.428Z,81.85
2017-10-31T06:01:58.839Z,81.47
2017-10-31T06:03:09.240Z,81.56
2017-10-31T06:04:19.357Z,81.76
2017-10-31T06:05:29.747Z,81.85
2017-10-31T06:06:40.150Z,81.85
2017-10-31T06:07:50.220Z,81.85
2017-10-31T06:09:00.639Z,81.76
2017-10-31T06:10:10.766Z,81.76
2017-10-31T06:11:21.206Z,81.85
2017-10-31T06:12:31.281Z,81.85
2017-10-31T06:13:41.670Z,82.04
2017-10-31T06:14:52.074Z,81.76
2017-10-31T06:16:02.525Z,82.14
2017-10-31T06:17:12.907Z,82.23
2017-10-31T06:18:23.316Z,81.76
2017-10-31T06:19:33.384Z,82.32
2017-10-31T06:20:43.796Z,82.32
2017-10-31T06:21:54.249Z,82.61
2017-10-31T06:23:03.668Z,82.32
2017-10-31T06:24:14.087Z,82.61
2017-10-31T06:25:24.165Z,82.23
2017-10-31T06:26:34.564Z,82.23
2017-10-31T06:27:44.632Z,81.95
2017-10-31T06:28:55.034Z,81.95
2017-10-31T06:30:04.778Z,82.32
2017-10-31T06:31:14.524Z,82.14
2017-10-31T06:32:25.516Z,82.14
2017-10-31T06:33:35.902Z,82.42
2017-10-31T06:34:45.959Z,82.14
2017-10-31T06:35:56.023Z,82.42
2017-10-31T06:37:06.406Z,82.51
2017-10-31T06:38:16.849Z,82.51
2017-10-31T06:39:26.984Z,82.42
2017-10-31T06:40:37.388Z,82.32
2017-10-31T06:41:47.790Z,82.42
2017-10-31T06:42:58.224Z,82.14
2017-10-31T06:44:07.988Z,82.14
2017-10-31T06:45:18.104Z,82.14
2017-10-31T06:46:28.495Z,82.32
2017-10-31T06:47:38.889Z,82.08
2017-10-31T06:48:49.268Z,82.04
2017-10-31T06:49:59.699Z,81.89
2017-10-31T06:51:10.103Z,81.6
2017-10-31T06:52:20.484Z,81.79
2017-10-31T06:53:30.205Z,82.08
2017-10-31T06:54:39.943Z,82.08
2017-10-31T06:55:50.344Z,82.18
2017-10-31T06:57:00.147Z,81.79
2017-10-31T06:58:10.203Z,82.08
2017-10-31T06:59:20.267Z,81.89
2017-10-31T07:00:30.671Z,81.89
2017-10-31T07:01:41.088Z,81.6
2017-10-31T07:02:51.527Z,81.79
2017-10-31T07:04:01.611Z,82.18
2017-10-31T07:05:11.350Z,81.89
2017-10-31T07:06:21.102Z,82.18
2017-10-31T07:07:31.167Z,82.18
2017-10-31T07:08:41.607Z,82.27
2017-10-31T07:09:51.696Z,82.14
2017-10-31T07:11:02.082Z,82.27
2017-10-31T07:12:11.831Z,82.27
2017-10-31T07:13:21.915Z,81.95
2017-10-31T07:14:32.036Z,82.08
2017-10-31T07:15:42.436Z,81.79
2017-10-31T07:16:52.821Z,81.89
2017-10-31T07:18:02.905Z,81.79
2017-10-31T07:19:12.308Z,81.79
2017-10-31T07:20:22.773Z,81.6
2017-10-31T07:21:33.180Z,81.79
2017-10-31T07:22:43.580Z,81.6
2017-10-31T07:23:53.985Z,81.6
2017-10-31T07:25:04.414Z,81.6
2017-10-31T07:26:14.853Z,81.98
2017-10-31T07:27:25.247Z,81.98
2017-10-31T07:28:34.976Z,81.98
2017-10-31T07:29:45.401Z,81.98
2017-10-31T07:30:55.817Z,81.89
2017-10-31T07:32:05.929Z,81.89
2017-10-31T07:33:16.327Z,82.08
2017-10-31T07:34:26.749Z,82.18
2017-10-31T07:35:37.165Z,82.08
2017-10-31T07:36:47.266Z,81.32
2017-10-31T07:37:57.706Z,81.07
2017-10-31T07:39:07.784Z,81.36
2017-10-31T07:40:17.864Z,81.55
2017-10-31T07:41:27.907Z,81.46
2017-10-31T07:42:38.299Z,81.36
2017-10-31T07:43:48.716Z,81.65
2017-10-31T07:44:59.108Z,81.74
2017-10-31T07:46:09.186Z,81.55
2017-10-31T07:47:19.617Z,81.55
2017-10-31T07:48:30.028Z,81.46
2017-10-31T07:49:40.425Z,81.55
2017-10-31T07:50:50.822Z,81.74
2017-10-31T07:52:01.254Z,81.74
2017-10-31T07:53:11.322Z,81.46
2017-10-31T07:54:21.726Z,81.59
2017-10-31T07:55:32.175Z,81.21
2017-10-31T07:56:41.577Z,81.12
2017-10-31T07:57:51.965Z,81.88
2017-10-31T07:59:02.366Z,81.68
2017-10-31T08:00:12.756Z,81.49
2017-10-31T08:01:23.155Z,81.78
2017-10-31T08:02:32.902Z,81.68
2017-10-31T08:03:43.304Z,81.49
2017-10-31T08:04:53.387Z,81.59
2017-10-31T08:06:03.476Z,81.59
2017-10-31T08:07:13.547Z,81.59
2017-10-31T08:08:23.608Z,81.44
2017-10-31T08:09:33.991Z,81.44
2017-10-31T08:10:44.382Z,81.15
2017-10-31T08:11:54.775Z,81.15
2017-10-31T08:13:05.198Z,81.35
2017-10-31T08:14:15.590Z,81.44
2017-10-31T08:15:25.675Z,81.82
2017-10-31T08:16:36.070Z,81.54
2017-10-31T08:17:46.509Z,81.15
2017-10-31T08:18:56.969Z,81.44
2017-10-31T08:20:07.388Z,81.54
2017-10-31T08:21:17.793Z,81.44
2017-10-31T08:22:28.186Z,81.63
2017-10-31T08:23:38.262Z,81.54
2017-10-31T08:24:48.713Z,80.96
2017-10-31T08:25:59.117Z,81.29
2017-10-31T08:27:09.188Z,81.2
2017-10-31T08:28:18.931Z,81.2
2017-10-31T08:29:29.339Z,80.81
2017-10-31T08:30:39.417Z,81.29
2017-10-31T08:31:49.810Z,81.2
2017-10-31T08:33:00.237Z,80.62
2017-10-31T08:34:10.304Z,81.38
2017-10-31T08:35:20.371Z,80.91
2017-10-31T08:36:30.781Z,81.14
2017-10-31T08:37:41.163Z,80.85
2017-10-31T08:38:51.237Z,80.76
2017-10-31T08:40:01.648Z,80.66
2017-10-31T08:41:12.043Z,80.85
2017-10-31T08:42:22.445Z,80.47
2017-10-31T08:43:32.522Z,80.76
2017-10-31T08:44:42.914Z,80.57
2017-10-31T08:45:53.304Z,80.66
2017-10-31T08:47:03.050Z,80.28
2017-10-31T08:48:13.496Z,80.7
2017-10-31T08:49:23.910Z,80.7
2017-10-31T08:50:34.352Z,80.7
2017-10-31T08:51:44.773Z,80.7
2017-10-31T08:52:54.890Z,80.7
2017-10-31T08:54:04.978Z,80.7
2017-10-31T08:55:15.390Z,80.61
2017-10-31T08:56:25.797Z,80.7
2017-10-31T08:57:35.867Z,80.22
2017-10-31T08:58:46.259Z,80.07
2017-10-31T08:59:56.651Z,80.27
2017-10-31T09:01:07.053Z,80.17
2017-10-31T09:02:17.451Z,80.46
2017-10-31T09:03:27.881Z,80.46
2017-10-31T09:04:37.603Z,80.07
2017-10-31T09:05:48.061Z,79.98
2017-10-31T09:06:58.482Z,80.55
2017-10-31T09:08:08.878Z,80.3
2017-10-31T09:09:19.298Z,80.11
2017-10-31T09:10:29.692Z,80.3
2017-10-31T09:11:40.127Z,80.11
2017-10-31T09:12:50.526Z,80.3
2017-10-31T09:14:00.608Z,80.11
2017-10-31T09:15:11.015Z,80.5
2017-10-31T09:16:21.434Z,80.5
2017-10-31T09:17:31.860Z,80.11
2017-10-31T09:18:42.280Z,80.4
2017-10-31T09:19:52.355Z,80.4
2017-10-31T09:21:02.740Z,80.59
2017-10-31T09:22:12.796Z,80.21
2017-10-31T09:23:23.252Z,80.79
2017-10-31T09:24:33.350Z,80.5
2017-10-31T09:25:43.755Z,80.79
2017-10-31T09:26:54.142Z,80.59
2017-10-31T09:28:04.551Z,80.59
2017-10-31T09:29:14.674Z,80.59
2017-10-31T09:30:24.770Z,80.5
2017-10-31T09:31:35.180Z,80.79
2017-10-31T09:32:45.607Z,80.21
2017-10-31T09:33:56.028Z,80.16
2017-10-31T09:35:06.103Z,80.35
2017-10-31T09:36:16.493Z,80.54
2017-10-31T09:37:26.233Z,80.54
2017-10-31T09:38:36.300Z,80.54
2017-10-31T09:39:45.732Z,80.44
2017-10-31T09:40:56.128Z,80.16
2017-10-31T09:42:06.211Z,80.06
2017-10-31T09:43:16.621Z,80.06
2017-10-31T09:44:26.044Z,79.77
2017-10-31T09:45:36.444Z,79.96
2017-10-31T09:46:46.896Z,80.06
2017-10-31T09:47:57.306Z,80.06
2017-10-31T09:49:07.374Z,80.16
2017-10-31T09:50:17.444Z,80.06
2017-10-31T09:51:27.509Z,80.06
2017-10-31T09:52:37.955Z,80.16
2017-10-31T09:53:48.351Z,80.25
2017-10-31T09:54:58.757Z,80.25
2017-10-31T09:56:09.156Z,80.06
2017-10-31T09:57:19.565Z,80.44
2017-10-31T09:58:29.694Z,80.06
2017-10-31T09:59:39.751Z,80.19
2017-10-31T10:00:50.152Z,80.1
2017-10-31T10:02:00.554Z,80.1
2017-10-31T10:03:10.653Z,80.1
2017-10-31T10:04:20.855Z,79.91
2017-10-31T10:05:31.248Z,80
2017-10-31T10:06:41.654Z,80
2017-10-31T10:07:51.728Z,79.91
2017-10-31T10:09:02.119Z,80
2017-10-31T10:10:12.198Z,80.1
2017-10-31T10:11:22.622Z,80
2017-10-31T10:12:32.696Z,79.81
2017-10-31T10:13:43.090Z,79.52
2017-10-31T10:14:53.481Z,79.91
2017-10-31T10:16:03.897Z,79.62
2017-10-31T10:17:14.323Z,80.1
2017-10-31T10:18:24.390Z,80.1
2017-10-31T10:19:34.840Z,80
2017-10-31T10:20:44.911Z,79.91
2017-10-31T10:21:55.319Z,80
2017-10-31T10:23:05.723Z,80.1
2017-10-31T10:24:16.119Z,80
2017-10-31T10:25:26.577Z,80.04
2017-10-31T10:26:36.981Z,80.19
2017-10-31T10:27:47.080Z,80
2017-10-31T10:28:57.500Z,80.19
2017-10-31T10:30:07.945Z,80.1
2017-10-31T10:31:18.344Z,80.19
2017-10-31T10:32:28.461Z,80.43
2017-10-31T10:33:38.867Z,80.04
2017-10-31T10:34:49.264Z,80.04
2017-10-31T10:36:00.081Z,80.52
2017-10-31T10:37:10.142Z,80.43
2017-10-31T10:38:20.230Z,80.24
2017-10-31T10:39:29.980Z,80.14
2017-10-31T10:40:40.377Z,80.33
2017-10-31T10:41:50.816Z,80.43
2017-10-31T10:43:01.284Z,80.43
2017-10-31T10:44:11.360Z,80.33
2017-10-31T10:45:21.435Z,80.14
2017-10-31T10:46:31.832Z,80.52
2017-10-31T10:47:42.233Z,80.43
2017-10-31T10:48:52.624Z,80.24
2017-10-31T10:50:02.683Z,80.52
2017-10-31T10:51:13.103Z,80.38
2017-10-31T10:52:23.173Z,80.67
2017-10-31T10:53:33.590Z,80.87
2017-10-31T10:54:43.985Z,81.25
2017-10-31T10:55:54.385Z,81.44
2017-10-31T10:57:04.791Z,81.25
2017-10-31T10:58:15.200Z,81.05
2017-10-31T10:59:25.337Z,80.67
2017-10-31T11:00:35.396Z,80.77
2017-10-31T11:01:45.792Z,81.34
2017-10-31T11:02:56.187Z,81.05
2017-10-31T11:04:06.598Z,81.54
2017-10-31T11:05:17.006Z,80.48
2017-10-31T11:06:27.472Z,80.67
2017-10-31T11:07:37.873Z,80.43
2017-10-31T11:08:48.255Z,80.24
2017-10-31T11:09:58.331Z,80.62
2017-10-31T11:11:08.892Z,80.52
2017-10-31T11:12:19.366Z,79.85
2017-10-31T11:13:29.451Z,80.33
2017-10-31T11:14:39.534Z,80.24
2017-10-31T11:15:49.923Z,80.14
2017-10-31T11:17:00.318Z,80.14
2017-10-31T11:18:10.435Z,80.14
2017-10-31T11:19:20.523Z,80.08
2017-10-31T11:20:30.591Z,79.99
2017-10-31T11:21:40.999Z,80.27
2017-10-31T11:22:51.411Z,79.7
2017-10-31T11:24:01.883Z,79.8
2017-10-31T11:25:11.969Z,79.32
2017-10-31T11:26:22.044Z,79.8
2017-10-31T11:27:32.121Z,80.18
2017-10-31T11:28:42.537Z,80.18
2017-10-31T11:29:52.661Z,79.99
2017-10-31T11:31:03.064Z,80.18
2017-10-31T11:32:13.686Z,80.27
2017-10-31T11:33:24.202Z,80.56
2017-10-31T11:34:34.592Z,80.66
2017-10-31T11:35:44.714Z,80.47
2017-10-31T11:36:55.126Z,80.27
2017-10-31T11:38:05.202Z,80.33
2017-10-31T11:39:15.580Z,80.66
2017-10-31T11:40:25.984Z,80.27
2017-10-31T11:41:36.117Z,79.99
2017-10-31T11:42:46.527Z,80.08
2017-10-31T11:43:56.948Z,80.08
2017-10-31T11:45:07.356Z,80.18
2017-10-31T11:46:17.763Z,80.08
2017-10-31T11:47:28.228Z,80.56
2017-10-31T11:48:38.629Z,80.37
2017-10-31T11:49:48.709Z,80.47
2017-10-31T11:50:59.099Z,80.47
2017-10-31T11:52:09.514Z,80.18
2017-10-31T11:53:19.914Z,80.18
2017-10-31T11:54:30.360Z,80.08
2017-10-31T11:55:40.754Z,80.18
2017-10-31T11:56:51.385Z,80.47
2017-10-31T11:58:01.783Z,80.27
2017-10-31T11:59:11.852Z,80.56
2017-10-31T12:00:21.927Z,80.47
2017-10-31T12:01:32.345Z,80.66
2017-10-31T12:02:42.451Z,80.37
2017-10-31T12:03:52.864Z,80.66
2017-10-31T12:05:03.319Z,80.37
2017-10-31T12:06:13.386Z,80.94
2017-10-31T12:07:23.810Z,80.94
2017-10-31T12:08:34.221Z,81.04
2017-10-31T12:09:44.304Z,80.85
2017-10-31T12:10:54.424Z,81.13
2017-10-31T12:12:04.841Z,80.94
2017-10-31T12:13:14.911Z,80.94
2017-10-31T12:14:25.313Z,81.04
2017-10-31T12:15:35.721Z,80.76
2017-10-31T12:16:46.173Z,80.94
2017-10-31T12:17:56.589Z,80.85
2017-10-31T12:19:07.028Z,80.94
2017-10-31T12:20:17.432Z,80.94
2017-10-31T12:21:27.519Z,80.66
2017-10-31T12:22:37.974Z,80.85
2017-10-31T12:23:48.040Z,80.66
2017-10-31T12:24:58.456Z,80.66
2017-10-31T12:26:08.843Z,80.94
2017-10-31T12:27:19.243Z,81.04
2017-10-31T12:28:29.640Z,80.85
2017-10-31T12:29:39.717Z,80.94
2017-10-31T12:30:49.787Z,81.04
2017-10-31T12:32:00.184Z,81.43
2017-10-31T12:33:10.258Z,81.38
2017-10-31T12:34:20.711Z,81.1
2017-10-31T12:35:31.110Z,81
2017-10-31T12:36:40.864Z,81.38
2017-10-31T12:37:51.256Z,81.38
2017-10-31T12:39:01.655Z,81.38
2017-10-31T12:40:12.105Z,81.29
2017-10-31T12:41:22.176Z,81.38
2017-10-31T12:42:32.663Z,81.2
2017-10-31T12:43:42.402Z,80.9
2017-10-31T12:44:52.485Z,81.2
2017-10-31T12:46:02.881Z,80.62
2017-10-31T12:47:12.948Z,80.94
2017-10-31T12:48:23.367Z,80.76
2017-10-31T12:49:33.791Z,81.04
2017-10-31T12:50:44.190Z,80.85
2017-10-31T12:51:54.647Z,80.85
2017-10-31T12:53:05.043Z,81.33
2017-10-31T12:54:15.114Z,81.57
2017-10-31T12:55:25.522Z,81.67
2017-10-31T12:56:35.572Z,81.57
2017-10-31T12:57:45.989Z,81.67
2017-10-31T12:58:56.393Z,81.38
2017-10-31T13:00:06.803Z,81.57
2017-10-31T13:01:17.220Z,81.57
2017-10-31T13:02:27.631Z,81.57
2017-10-31T13:03:38.046Z,81.77
2017-10-31T13:04:48.456Z,81.86
2017-10-31T13:05:58.885Z,81.2
2017-10-31T13:07:09.302Z,81.48
2017-10-31T13:08:19.380Z,81.48
2017-10-31T13:09:29.533Z,81.2
2017-10-31T13:10:39.283Z,81.1
2017-10-31T13:11:49.685Z,81.2
2017-10-31T13:12:59.120Z,81.38
2017-10-31T13:14:09.537Z,81.29
2017-10-31T13:15:19.687Z,81.34
2017-10-31T13:16:30.101Z,81.15
2017-10-31T13:17:40.205Z,81.25
2017-10-31T13:18:49.962Z,81.34
2017-10-31T13:20:00.397Z,81.54
2017-10-31T13:21:10.877Z,81.82
2017-10-31T13:22:21.288Z,81.54
2017-10-31T13:23:31.718Z,81.82
2017-10-31T13:24:42.114Z,82.07
2017-10-31T13:25:52.208Z,82.3
2017-10-31T13:27:02.337Z,81.88
2017-10-31T13:28:12.744Z,81.88
2017-10-31T13:29:23.131Z,81.49
2017-10-31T13:30:33.524Z,81.59
2017-10-31T13:31:44.864Z,81.68
2017-10-31T13:32:55.275Z,81.68
2017-10-31T13:34:05.701Z,81.21
2017-10-31T13:35:15.781Z,81.25
2017-10-31T13:36:26.189Z,80.58
2017-10-31T13:37:36.607Z,80.87
2017-10-31T13:38:47.008Z,80.48
2017-10-31T13:39:57.096Z,80.87
2017-10-31T13:41:07.180Z,80.58
2017-10-31T13:42:17.596Z,80.48
2017-10-31T13:43:28.016Z,80.77
2017-10-31T13:44:38.474Z,80.87
2017-10-31T13:45:48.887Z,80.48
2017-10-31T13:46:58.984Z,80.67
2017-10-31T13:48:09.087Z,80.87
2017-10-31T13:49:19.496Z,80.87
2017-10-31T13:50:29.914Z,80.87
2017-10-31T13:51:39.657Z,80.67
2017-10-31T13:52:50.058Z,80.87
2017-10-31T13:54:00.129Z,80.81
2017-10-31T13:55:10.681Z,80.33
2017-10-31T13:56:21.777Z,80.24
2017-10-31T13:57:32.183Z,79.85
2017-10-31T13:58:42.256Z,80.81
2017-10-31T13:59:52.664Z,80.81
2017-10-31T14:01:03.085Z,81.25
2017-10-31T14:02:13.482Z,81.44
2017-10-31T14:03:23.906Z,81.82
2017-10-31T14:04:34.309Z,81.63
2017-10-31T14:05:44.382Z,81.82
2017-10-31T14:06:54.464Z,82.01
2017-10-31T14:08:04.602Z,81.68
2017-10-31T14:09:15.007Z,82.17
2017-10-31T14:10:25.406Z,82.17
2017-10-31T14:11:36.216Z,82.45
2017-10-31T14:12:46.640Z,81.97
2017-10-31T14:13:57.047Z,82.35
2017-10-31T14:15:07.452Z,81.93
2017-10-31T14:16:17.869Z,82.22
2017-10-31T14:17:28.279Z,82.12
2017-10-31T14:18:38.366Z,81.93
2017-10-31T14:19:48.437Z,82.51
2017-10-31T14:20:58.861Z,82.41
2017-10-31T14:22:09.291Z,82.51
2017-10-31T14:23:19.365Z,82.7
2017-10-31T14:24:29.471Z,82.7
2017-10-31T14:25:39.925Z,82.56
2017-10-31T14:26:49.687Z,82.56
2017-10-31T14:27:59.752Z,82.75
2017-10-31T14:29:10.165Z,82.84
2017-10-31T14:30:20.563Z,82.84
2017-10-31T14:31:30.672Z,82.71
2017-10-31T14:32:41.087Z,82.71
2017-10-31T14:33:51.181Z,82.32
2017-10-31T14:35:01.270Z,82.42
2017-10-31T14:36:11.693Z,82.42
2017-10-31T14:37:22.135Z,82.42
2017-10-31T14:38:32.541Z,82.42
2017-10-31T14:39:42.621Z,82.71
2017-10-31T14:40:53.028Z,82.71
2017-10-31T14:42:03.456Z,82.71
2017-10-31T14:43:13.930Z,82.32
2017-10-31T14:44:24.015Z,82.14
2017-10-31T14:45:34.409Z,81.85
2017-10-31T14:46:44.810Z,82.04
2017-10-31T14:47:54.879Z,82.14
2017-10-31T14:49:05.346Z,82.04
2017-10-31T14:50:15.804Z,82.14
2017-10-31T14:51:25.880Z,82.14
2017-10-31T14:52:35.943Z,82.42
2017-10-31T14:53:46.344Z,82.04
2017-10-31T14:54:56.852Z,82.71
2017-10-31T14:56:07.263Z,82.42
2017-10-31T14:57:17.678Z,82.42
2017-10-31T14:58:28.325Z,82.52
2017-10-31T14:59:38.712Z,82.61
2017-10-31T15:00:49.175Z,82.71
2017-10-31T15:01:59.616Z,82.52
2017-10-31T15:03:10.042Z,82.81
2017-10-31T15:04:20.499Z,82.71
2017-10-31T15:05:30.582Z,82.71
2017-10-31T15:06:40.726Z,82.71
2017-10-31T15:07:51.139Z,82.81
2017-10-31T15:09:01.556Z,82.71
2017-10-31T15:10:11.962Z,82.71
2017-10-31T15:11:22.352Z,82.71
2017-10-31T15:12:32.802Z,82.67
2017-10-31T15:13:42.864Z,82.67
2017-10-31T15:14:53.261Z,82.71
2017-10-31T15:16:03.354Z,82.71
2017-10-31T15:17:13.087Z,82.71
2017-10-31T15:18:23.495Z,82.57
2017-10-31T15:19:33.258Z,82.38
2017-10-31T15:20:43.369Z,82.67
2017-10-31T15:21:53.758Z,82.67
2017-10-31T15:23:03.858Z,82.86
2017-10-31T15:24:14.310Z,82.67
2017-10-31T15:25:24.370Z,82.67
2017-10-31T15:26:34.769Z,82.76
2017-10-31T15:27:45.188Z,82.57
2017-10-31T15:28:55.602Z,82.48
2017-10-31T15:30:06.029Z,82.57
2017-10-31T15:31:16.432Z,82.67
2017-10-31T15:32:26.851Z,82.76
2017-10-31T15:33:36.906Z,82.38
2017-10-31T15:34:47.295Z,82.48
2017-10-31T15:35:57.755Z,82.67
2017-10-31T15:37:07.850Z,82.38
2017-10-31T15:38:17.597Z,82.57
2017-10-31T15:39:28.068Z,82.76
2017-10-31T15:40:38.478Z,82.19